createdAt,value
2022-09-28T00:01:20.856Z,99675.53
2022-09-28T00:03:51.697Z,99671.84
2022-09-28T00:06:22.191Z,99669.44
2022-09-28T00:08:51.931Z,99669.75
2022-09-28T00:11:21.227Z,99668.91
2022-09-28T00:13:53.668Z,99670.06
2022-09-28T00:16:28.770Z,99673.75
2022-09-28T00:18:55.907Z,99659.75
2022-09-28T00:21:27.198Z,99670.66
2022-09-28T00:24:12.973Z,99663.59
2022-09-28T00:26:51.871Z,99661.88
2022-09-28T00:29:21.694Z,99659.19
2022-09-28T00:31:52.512Z,99656.34
2022-09-28T00:34:20.844Z,99652.81
2022-09-28T00:36:49.459Z,99657.91
2022-09-28T00:39:17.793Z,99662.13
2022-09-28T00:41:46.795Z,99658.56
2022-09-28T00:44:25.829Z,99666.53
2022-09-28T00:47:08.162Z,99663.97
2022-09-28T00:49:45.777Z,99664.97
2022-09-28T00:52:20.286Z,99658.75
2022-09-28T00:54:49.277Z,99649.31
2022-09-28T00:57:17.103Z,99647.59
2022-09-28T00:59:44.612Z,99645.06
2022-09-28T01:02:11.806Z,99649.06
2022-09-28T01:04:39.325Z,99643.13
2022-09-28T01:07:09.324Z,99648.94
2022-09-28T01:09:40.744Z,99648.28
2022-09-28T01:12:08.191Z,99648.88
2022-09-28T01:14:35.445Z,99643.47
2022-09-28T01:17:16.805Z,99635.53
2022-09-28T01:20:34.177Z,99633.84
2022-09-28T01:23:13.073Z,99639.25
2022-09-28T01:25:54.187Z,99649.28
2022-09-28T01:28:26.582Z,99644.22
2022-09-28T01:31:11.105Z,99640.84
2022-09-28T01:33:45.489Z,99653.28
2022-09-28T01:36:19.597Z,99648.91
2022-09-28T01:38:53.548Z,99646.66
2022-09-28T01:41:24.200Z,99651.91
2022-09-28T01:43:57.802Z,99650.66
2022-09-28T01:46:37.299Z,99657.72
2022-09-28T01:49:34.263Z,99659.44
2022-09-28T01:52:18.560Z,99656.88
2022-09-28T01:55:06.523Z,99659.28
2022-09-28T01:57:44.806Z,99657.97
2022-09-28T02:00:15.756Z,99657.41
2022-09-28T02:03:16.765Z,99665.66
2022-09-28T02:06:04.204Z,99672.19
2022-09-28T02:08:55.019Z,99667.81
2022-09-28T02:11:31.061Z,99663.25
2022-09-28T02:14:06.097Z,99673.31
2022-09-28T02:16:43.017Z,99668.22
2022-09-28T02:19:15.991Z,99660.16
2022-09-28T02:22:29.237Z,99660.16
2022-09-28T02:25:05.706Z,99655.91
2022-09-28T02:27:55.687Z,99654.09
2022-09-28T02:30:22.921Z,99638.66
2022-09-28T02:32:55.196Z,99642.53
2022-09-28T02:35:22.771Z,99642.53
2022-09-28T02:37:50.692Z,99631.88
2022-09-28T02:40:32.804Z,99633.03
2022-09-28T02:43:29.535Z,99632.19
2022-09-28T02:46:18.283Z,99624.41
2022-09-28T02:49:21.917Z,99621.88
2022-09-28T02:51:59.737Z,99615.06
2022-09-28T02:55:11.776Z,99617.75
2022-09-28T02:58:29.163Z,99621.63
2022-09-28T03:01:22.856Z,99610.00
2022-09-28T03:04:26.884Z,99625.28
2022-09-28T03:07:13.448Z,99625.44
2022-09-28T03:09:52.744Z,99633.81
2022-09-28T03:12:23.606Z,99626.16
2022-09-28T03:15:33.922Z,99625.47
2022-09-28T03:18:01.498Z,99626.47
2022-09-28T03:20:32.163Z,99626.59
2022-09-28T03:23:23.326Z,99634.97
2022-09-28T03:25:47.356Z,99634.28
2022-09-28T03:28:14.713Z,99635.41
2022-09-28T03:30:43.469Z,99637.25
2022-09-28T03:33:11.265Z,99648.00
2022-09-28T03:35:39.145Z,99645.31
2022-09-28T03:38:06.282Z,99649.69
2022-09-28T03:40:36.916Z,99653.09
2022-09-28T03:43:03.969Z,99644.56
2022-09-28T03:45:31.015Z,99649.69
2022-09-28T03:47:58.562Z,99659.72
2022-09-28T03:50:25.894Z,99646.16
2022-09-28T03:52:52.858Z,99639.19
2022-09-28T03:55:19.846Z,99641.19
2022-09-28T03:57:54.984Z,99634.28
2022-09-28T04:00:21.939Z,99621.97
2022-09-28T04:02:49.466Z,99627.34
2022-09-28T04:05:16.640Z,99629.47
2022-09-28T04:07:43.653Z,99615.16
2022-09-28T04:10:10.604Z,99625.91
2022-09-28T04:12:40.915Z,99615.88
2022-09-28T04:15:08.904Z,99617.72
2022-09-28T04:17:39.937Z,99619.94
2022-09-28T04:20:12.773Z,99607.94
2022-09-28T04:22:45.420Z,99615.84
2022-09-28T04:25:12.392Z,99617.53
2022-09-28T04:27:57.836Z,99619.97
2022-09-28T04:30:24.910Z,99615.47
2022-09-28T04:32:53.542Z,99622.66
2022-09-28T04:35:21.329Z,99613.91
2022-09-28T04:37:48.488Z,99618.44
2022-09-28T04:40:15.810Z,99622.66
2022-09-28T04:42:43.289Z,99626.50
2022-09-28T04:45:10.889Z,99637.50
2022-09-28T04:47:42.380Z,99636.63
2022-09-28T04:50:38.687Z,99650.09
2022-09-28T04:53:21.986Z,99645.59
2022-09-28T04:56:04.170Z,99647.41
2022-09-28T04:58:33.335Z,99661.00
2022-09-28T05:01:05.973Z,99664.69
2022-09-28T05:03:51.550Z,99670.06
2022-09-28T05:06:41.357Z,99673.59
2022-09-28T05:09:09.583Z,99670.75
2022-09-28T05:11:36.573Z,99669.22
2022-09-28T05:14:07.157Z,99661.56
2022-09-28T05:16:34.439Z,99662.69
2022-09-28T05:19:19.380Z,99652.66
2022-09-28T05:21:47.006Z,99651.66
2022-09-28T05:24:14.571Z,99657.03
2022-09-28T05:26:44.870Z,99650.09
2022-09-28T05:29:12.028Z,99654.50
2022-09-28T05:31:57.939Z,99651.66
2022-09-28T05:34:49.541Z,99645.44
2022-09-28T05:37:24.036Z,99643.47
2022-09-28T05:39:51.081Z,99647.84
2022-09-28T05:42:18.207Z,99644.88
2022-09-28T05:44:45.290Z,99641.03
2022-09-28T05:47:13.286Z,99630.28
2022-09-28T05:49:40.279Z,99631.88
2022-09-28T05:52:07.271Z,99638.94
2022-09-28T05:54:37.671Z,99634.13
2022-09-28T05:57:07.075Z,99626.59
2022-09-28T05:59:35.248Z,99633.00
2022-09-28T06:02:04.376Z,99630.84
2022-09-28T06:04:31.934Z,99635.94
2022-09-28T06:06:59.848Z,99631.25
2022-09-28T06:09:27.455Z,99636.50
2022-09-28T06:12:13.206Z,99637.50
2022-09-28T06:14:44.766Z,99644.69
2022-09-28T06:17:12.732Z,99648.09
2022-09-28T06:19:41.386Z,99652.34
2022-09-28T06:22:26.290Z,99651.03
2022-09-28T06:25:04.297Z,99649.91
2022-09-28T06:27:31.492Z,99646.09
2022-09-28T06:30:00.933Z,99620.72
2022-09-28T06:32:30.011Z,99620.41
2022-09-28T06:34:57.806Z,99624.13
2022-09-28T06:37:27.303Z,99632.06
2022-09-28T06:39:56.564Z,99643.38
2022-09-28T06:42:24.345Z,99630.03
2022-09-28T06:45:25.593Z,99634.44
2022-09-28T06:48:11.080Z,99631.59
2022-09-28T06:50:41.482Z,99638.53
2022-09-28T06:53:29.829Z,99644.59
2022-09-28T06:56:01.369Z,99641.78
2022-09-28T06:58:29.914Z,99636.09
2022-09-28T07:00:59.518Z,99638.31
2022-09-28T07:03:28.616Z,99641.56
2022-09-28T07:05:57.004Z,99637.59
2022-09-28T07:08:41.493Z,99639.00
2022-09-28T07:11:27.500Z,99642.22
2022-09-28T07:14:24.954Z,99631.28
2022-09-28T07:17:12.416Z,99629.47
2022-09-28T07:19:41.429Z,99633.56
2022-09-28T07:22:08.821Z,99633.94
2022-09-28T07:24:36.147Z,99632.97
2022-09-28T07:27:39.634Z,99634.94
2022-09-28T07:30:20.473Z,99634.66
2022-09-28T07:33:32.878Z,99633.63
2022-09-28T07:36:21.012Z,99632.38
2022-09-28T07:38:48.604Z,99633.19
2022-09-28T07:41:21.619Z,99641.97
2022-09-28T07:43:51.071Z,99639.13
2022-09-28T07:46:21.323Z,99644.34
2022-09-28T07:48:55.707Z,99652.13
2022-09-28T07:51:52.819Z,99652.66
2022-09-28T07:54:39.459Z,99657.09
2022-09-28T07:57:07.034Z,99658.47
2022-09-28T07:59:57.238Z,99660.03
2022-09-28T08:02:45.740Z,99659.75
2022-09-28T08:05:17.724Z,99666.81
2022-09-28T08:07:44.993Z,99662.56
2022-09-28T08:10:12.972Z,99674.72
2022-09-28T08:13:04.763Z,99681.84
2022-09-28T08:15:55.296Z,99685.22
2022-09-28T08:18:32.837Z,99680.22
2022-09-28T08:21:21.681Z,99671.31
2022-09-28T08:23:49.790Z,99680.41
2022-09-28T08:26:17.366Z,99686.31
2022-09-28T08:28:47.747Z,99685.00
2022-09-28T08:31:33.458Z,99685.56
2022-09-28T08:34:21.253Z,99692.88
2022-09-28T08:37:11.138Z,99686.63
2022-09-28T08:40:01.695Z,99683.63
2022-09-28T08:43:00.490Z,99680.88
2022-09-28T08:45:36.672Z,99672.00
2022-09-28T08:48:56.225Z,99670.84
2022-09-28T08:51:59.793Z,99683.72
2022-09-28T08:55:02.796Z,99674.00
2022-09-28T08:57:58.210Z,99683.53
2022-09-28T09:00:54.189Z,99679.53
2022-09-28T09:03:35.873Z,99673.19
2022-09-28T09:06:52.008Z,99671.97
2022-09-28T09:10:19.282Z,99663.44
2022-09-28T09:13:12.343Z,99665.19
2022-09-28T09:15:56.412Z,99658.47
2022-09-28T09:18:47.625Z,99655.13
2022-09-28T09:21:42.179Z,99648.56
2022-09-28T09:24:27.279Z,99648.78
2022-09-28T09:27:41.348Z,99649.63
2022-09-28T09:30:18.700Z,99648.00
2022-09-28T09:33:25.082Z,99645.97
2022-09-28T09:36:18.132Z,99633.81
2022-09-28T09:39:24.199Z,99638.44
2022-09-28T09:42:35.716Z,99636.25
2022-09-28T09:45:48.223Z,99641.00
2022-09-28T09:48:47.289Z,99637.31
2022-09-28T09:51:26.064Z,99628.00
2022-09-28T09:54:02.402Z,99625.53
2022-09-28T09:56:57.382Z,99623.19
2022-09-28T09:59:45.359Z,99616.41
2022-09-28T10:02:35.030Z,99609.84
2022-09-28T10:05:23.358Z,99607.16
2022-09-28T10:08:10.362Z,99604.97
2022-09-28T10:10:50.061Z,99597.53
2022-09-28T10:13:19.376Z,99593.31
2022-09-28T10:15:48.202Z,99592.63
2022-09-28T10:18:23.335Z,99589.41
2022-09-28T10:21:15.383Z,99578.28
2022-09-28T10:23:59.221Z,99573.19
2022-09-28T10:26:39.751Z,99589.75
2022-09-28T10:29:23.001Z,99584.31
2022-09-28T10:31:52.403Z,99576.03
2022-09-28T10:34:35.659Z,99580.59
2022-09-28T10:37:13.372Z,99581.78
2022-09-28T10:40:06.842Z,99580.44
2022-09-28T10:42:36.422Z,99577.22
2022-09-28T10:45:23.260Z,99574.81
2022-09-28T10:47:53.885Z,99576.19
2022-09-28T10:50:26.281Z,99572.75
2022-09-28T10:53:21.761Z,99576.69
2022-09-28T10:56:23.359Z,99578.38
2022-09-28T10:59:28.566Z,99581.75
2022-09-28T11:02:48.747Z,99571.75
2022-09-28T11:05:29.007Z,99563.16
2022-09-28T11:08:02.563Z,99564.00
2022-09-28T11:10:38.069Z,99555.69
2022-09-28T11:13:12.542Z,99557.19
2022-09-28T11:15:44.464Z,99545.00
2022-09-28T11:18:34.517Z,99556.84
2022-09-28T11:21:21.507Z,99547.84
2022-09-28T11:24:19.508Z,99542.06
2022-09-28T11:26:52.925Z,99534.63
2022-09-28T11:29:35.008Z,99543.44
2022-09-28T11:32:30.702Z,99542.91
2022-09-28T11:35:50.644Z,99535.63
2022-09-28T11:38:36.231Z,99534.09
2022-09-28T11:41:34.918Z,99527.00
2022-09-28T11:44:29.467Z,99525.97
2022-09-28T11:47:25.634Z,99527.69
2022-09-28T11:50:23.732Z,99531.38
2022-09-28T11:53:10.500Z,99533.25
2022-09-28T11:55:54.326Z,99524.28
2022-09-28T11:58:45.044Z,99522.91
2022-09-28T12:01:36.151Z,99524.78
2022-09-28T12:04:39.583Z,99520.34
2022-09-28T12:07:18.019Z,99508.16
2022-09-28T12:10:13.516Z,99505.56
2022-09-28T12:12:52.536Z,99510.44
2022-09-28T12:15:24.374Z,99516.19
2022-09-28T12:18:07.427Z,99503.56
2022-09-28T12:20:42.709Z,99509.72
2022-09-28T12:23:25.957Z,99508.72
2022-09-28T12:26:04.830Z,99500.53
2022-09-28T12:28:40.126Z,99499.34
2022-09-28T12:31:26.424Z,99501.00
2022-09-28T12:33:53.373Z,99492.13
2022-09-28T12:36:56.558Z,99491.00
2022-09-28T12:40:02.252Z,99488.88
2022-09-28T12:42:53.066Z,99495.53
2022-09-28T12:46:11.972Z,99491.56
2022-09-28T12:48:52.925Z,99490.38
2022-09-28T12:51:57.619Z,99497.47
2022-09-28T12:55:15.234Z,99493.75
2022-09-28T12:58:00.227Z,99494.41
2022-09-28T13:00:55.019Z,99492.34
2022-09-28T13:03:31.195Z,99483.75
2022-09-28T13:09:14.773Z,99478.59
2022-09-28T13:11:54.599Z,99478.72
2022-09-28T13:14:51.365Z,99483.47
2022-09-28T13:18:04.126Z,99483.47
2022-09-28T13:24:04.332Z,99473.94
2022-09-28T13:26:44.993Z,99458.44
2022-09-28T13:29:16.244Z,99457.59
2022-09-28T13:34:38.279Z,99440.06
2022-09-28T13:37:23.427Z,99441.06
2022-09-28T13:40:05.826Z,99445.78
2022-09-28T13:42:45.154Z,99445.97
2022-09-28T13:45:21.503Z,99436.66
2022-09-28T13:47:51.921Z,99430.06
2022-09-28T13:51:11.519Z,99428.69
2022-09-28T13:53:56.384Z,99417.69
2022-09-28T13:56:49.658Z,99409.78
2022-09-28T13:59:29.852Z,99406.50
2022-09-28T14:02:30.339Z,99409.25
2022-09-28T14:05:02.291Z,99409.91
2022-09-28T14:07:35.066Z,99411.63
2022-09-28T14:10:22.237Z,99407.50
2022-09-28T14:12:54.143Z,99404.41
2022-09-28T14:15:30.305Z,99401.53
2022-09-28T14:18:54.962Z,99397.59
2022-09-28T14:22:19.541Z,99403.69
2022-09-28T14:25:15.265Z,99398.47
2022-09-28T14:28:01.739Z,99397.38
2022-09-28T14:30:45.408Z,99393.16
2022-09-28T14:33:33.679Z,99389.16
2022-09-28T14:36:05.220Z,99384.56
2022-09-28T14:39:02.869Z,99384.88
2022-09-28T14:41:43.157Z,99381.91
2022-09-28T14:44:13.487Z,99382.31
2022-09-28T14:46:47.876Z,99382.50
2022-09-28T14:49:17.631Z,99375.41
2022-09-28T14:51:47.529Z,99379.34
2022-09-28T14:54:23.575Z,99373.25
2022-09-28T14:56:53.601Z,99378.66
2022-09-28T14:59:30.916Z,99374.25
2022-09-28T15:02:01.333Z,99368.56
2022-09-28T15:04:31.268Z,99372.72
2022-09-28T15:06:58.329Z,99370.78
2022-09-28T15:09:36.547Z,99373.72
2022-09-28T15:12:15.143Z,99363.78
2022-09-28T15:14:48.138Z,99358.75
2022-09-28T15:17:23.553Z,99361.69
2022-09-28T15:20:02.701Z,99357.09
2022-09-28T15:22:30.271Z,99372.09
2022-09-28T15:25:02.449Z,99366.47
2022-09-28T15:27:37.498Z,99360.56
2022-09-28T15:30:25.471Z,99360.97
2022-09-28T15:33:16.977Z,99359.47
2022-09-28T15:35:56.764Z,99366.34
2022-09-28T15:38:24.166Z,99360.66
2022-09-28T15:40:51.522Z,99361.06
2022-09-28T15:43:27.004Z,99366.66
2022-09-28T15:46:08.079Z,99359.06
2022-09-28T15:48:46.669Z,99365.06
2022-09-28T15:51:13.803Z,99355.63
2022-09-28T15:53:59.076Z,99358.56
2022-09-28T15:56:27.664Z,99366.03
2022-09-28T15:59:33.153Z,99360.16
2022-09-28T16:02:23.002Z,99354.06
2022-09-28T16:05:01.963Z,99353.44
2022-09-28T16:07:35.326Z,99358.88
2022-09-28T16:10:12.956Z,99359.88
2022-09-28T16:12:40.546Z,99360.28
2022-09-28T16:15:20.160Z,99361.31
2022-09-28T16:17:56.241Z,99368.41
2022-09-28T16:20:29.995Z,99363.84
2022-09-28T16:23:08.620Z,99364.03
2022-09-28T16:25:39.076Z,99365.06
2022-09-28T16:28:07.650Z,99363.19
2022-09-28T16:30:37.047Z,99368.16
2022-09-28T16:33:30.250Z,99357.31
2022-09-28T16:36:03.431Z,99356.28
2022-09-28T16:38:31.673Z,99352.72
2022-09-28T16:41:02.286Z,99364.41
2022-09-28T16:43:31.601Z,99351.59
2022-09-28T16:46:14.686Z,99363.28
2022-09-28T16:48:49.089Z,99360.13
2022-09-28T16:51:18.790Z,99377.47
2022-09-28T16:54:05.004Z,99378.03
2022-09-28T16:56:34.564Z,99373.16
2022-09-28T16:59:02.758Z,99377.31
2022-09-28T17:01:31.214Z,99369.31
2022-09-28T17:03:58.558Z,99374.31
2022-09-28T17:06:26.584Z,99374.03
2022-09-28T17:08:56.670Z,99377.31
2022-09-28T17:11:25.088Z,99384.53
2022-09-28T17:13:56.868Z,99379.31
2022-09-28T17:16:51.011Z,99380.66
2022-09-28T17:19:24.929Z,99386.84
2022-09-28T17:21:53.788Z,99385.53
2022-09-28T17:24:21.389Z,99381.50
2022-09-28T17:26:51.983Z,99385.63
2022-09-28T17:29:20.050Z,99387.88
2022-09-28T17:31:48.018Z,99386.91
2022-09-28T17:34:17.676Z,99384.78
2022-09-28T17:36:45.614Z,99379.09
2022-09-28T17:39:19.127Z,99375.25
2022-09-28T17:41:46.642Z,99378.03
2022-09-28T17:44:17.541Z,99370.09
2022-09-28T17:46:49.083Z,99370.25
2022-09-28T17:49:18.572Z,99374.19
2022-09-28T17:51:48.499Z,99375.41
2022-09-28T17:54:19.311Z,99374.72
2022-09-28T17:56:50.435Z,99378.84
2022-09-28T17:59:21.249Z,99380.06
2022-09-28T18:01:49.292Z,99376.66
2022-09-28T18:04:40.154Z,99375.56
2022-09-28T18:07:06.744Z,99382.19
2022-09-28T18:09:35.087Z,99377.94
2022-09-28T18:12:06.386Z,99386.41
2022-09-28T18:14:35.822Z,99393.22
2022-09-28T18:17:03.557Z,99392.91
2022-09-28T18:19:32.283Z,99396.19
2022-09-28T18:22:02.875Z,99399.97
2022-09-28T18:24:32.450Z,99404.59
2022-09-28T18:27:02.982Z,99402.63
2022-09-28T18:29:33.307Z,99404.34
2022-09-28T18:32:04.354Z,99397.81
2022-09-28T18:34:39.962Z,99402.75
2022-09-28T18:37:08.510Z,99395.13
2022-09-28T18:39:37.225Z,99392.63
2022-09-28T18:42:07.137Z,99399.38
2022-09-28T18:44:37.174Z,99403.31
2022-09-28T18:47:05.371Z,99402.44
2022-09-28T18:49:33.605Z,99400.97
2022-09-28T18:52:03.489Z,99402.81
2022-09-28T18:54:31.584Z,99408.06
2022-09-28T18:57:00.707Z,99406.53
2022-09-28T18:59:29.261Z,99415.69
2022-09-28T19:02:00.816Z,99409.59
2022-09-28T19:04:30.533Z,99404.03
2022-09-28T19:06:58.097Z,99403.69
2022-09-28T19:09:26.535Z,99403.53
2022-09-28T19:11:55.196Z,99408.09
2022-09-28T19:14:25.854Z,99415.56
2022-09-28T19:16:56.039Z,99410.97
2022-09-28T19:19:24.235Z,99419.28
2022-09-28T19:21:53.122Z,99424.69
2022-09-28T19:24:21.770Z,99422.00
2022-09-28T19:26:53.486Z,99422.00
2022-09-28T19:29:23.475Z,99429.25
2022-09-28T19:31:52.393Z,99417.56
2022-09-28T19:34:21.875Z,99414.03
2022-09-28T19:36:50.738Z,99418.41
2022-09-28T19:39:18.430Z,99416.03
2022-09-28T19:41:53.020Z,99412.84
2022-09-28T19:44:27.378Z,99406.78
2022-09-28T19:47:07.492Z,99410.31
2022-09-28T19:49:38.639Z,99410.66
2022-09-28T19:52:16.491Z,99399.16
2022-09-28T19:55:01.594Z,99398.19
2022-09-28T19:57:33.487Z,99406.84
2022-09-28T20:00:03.850Z,99398.25
2022-09-28T20:02:39.090Z,99394.84
2022-09-28T20:05:10.118Z,99387.78
2022-09-28T20:07:39.846Z,99396.88
2022-09-28T20:10:13.776Z,99395.75
2022-09-28T20:12:44.111Z,99407.06
2022-09-28T20:15:16.279Z,99411.47
2022-09-28T20:17:45.913Z,99404.75
2022-09-28T20:20:14.539Z,99407.94
2022-09-28T20:22:43.943Z,99410.00
2022-09-28T20:25:13.280Z,99393.59
2022-09-28T20:27:41.556Z,99380.25
2022-09-28T20:30:09.654Z,99384.81
2022-09-28T20:32:39.693Z,99381.75
2022-09-28T20:35:08.501Z,99391.56
2022-09-28T20:37:36.178Z,99393.78
2022-09-28T20:40:05.620Z,99401.56
2022-09-28T20:42:35.183Z,99401.75
2022-09-28T20:45:05.670Z,99397.31
2022-09-28T20:47:33.292Z,99394.97
2022-09-28T20:50:02.853Z,99399.72
2022-09-28T20:52:32.310Z,99399.72
2022-09-28T20:55:01.089Z,99404.28
2022-09-28T20:57:28.842Z,99399.72
2022-09-28T20:59:57.774Z,99396.81
2022-09-28T21:02:27.547Z,99394.13
2022-09-28T21:04:54.654Z,99396.81
2022-09-28T21:07:22.388Z,99401.59
2022-09-28T21:09:51.025Z,99404.44
2022-09-28T21:12:23.634Z,99397.50
2022-09-28T21:14:53.391Z,99412.38
2022-09-28T21:17:22.968Z,99420.84
2022-09-28T21:19:51.970Z,99416.63
2022-09-28T21:22:22.274Z,99407.66
2022-09-28T21:24:49.128Z,99421.38
2022-09-28T21:27:18.837Z,99411.72
2022-09-28T21:29:51.536Z,99420.69
2022-09-28T21:32:19.513Z,99406.78
2022-09-28T21:34:49.311Z,99418.63
2022-09-28T21:37:18.174Z,99410.84
2022-09-28T21:39:47.933Z,99413.75
2022-09-28T21:42:17.634Z,99405.78
2022-09-28T21:44:45.803Z,99412.38
2022-09-28T21:47:13.981Z,99408.19
2022-09-28T21:49:40.967Z,99409.16
2022-09-28T21:52:08.642Z,99412.88
2022-09-28T21:54:37.814Z,99414.06
2022-09-28T21:57:06.882Z,99411.53
2022-09-28T21:59:34.605Z,99426.91
2022-09-28T22:02:02.078Z,99427.75
2022-09-28T22:04:29.498Z,99434.00
2022-09-28T22:06:56.835Z,99443.78
2022-09-28T22:09:23.967Z,99434.00
2022-09-28T22:11:51.247Z,99437.38
2022-09-28T22:14:18.554Z,99426.06
2022-09-28T22:16:45.621Z,99430.44
2022-09-28T22:19:12.643Z,99424.03
2022-09-28T22:21:39.839Z,99419.31
2022-09-28T22:24:07.703Z,99430.97
2022-09-28T22:26:37.003Z,99430.13
2022-09-28T22:29:07.698Z,99433.66
2022-09-28T22:31:38.735Z,99441.75
2022-09-28T22:34:07.572Z,99445.50
2022-09-28T22:36:35.069Z,99442.78
2022-09-28T22:39:02.230Z,99436.69
2022-09-28T22:41:30.057Z,99435.16
2022-09-28T22:43:57.505Z,99430.78
2022-09-28T22:46:27.387Z,99423.84
2022-09-28T22:48:57.722Z,99422.84
2022-09-28T22:51:27.767Z,99421.31
2022-09-28T22:53:56.541Z,99416.25
2022-09-28T22:56:23.884Z,99417.44
2022-09-28T22:58:50.799Z,99403.28
2022-09-28T23:01:27.454Z,99414.22
2022-09-28T23:03:56.521Z,99406.47
2022-09-28T23:06:28.340Z,99419.94
2022-09-28T23:08:55.277Z,99422.66
2022-09-28T23:11:22.441Z,99421.16
2022-09-28T23:13:55.495Z,99423.16
2022-09-28T23:16:25.526Z,99414.56
2022-09-28T23:18:54.737Z,99406.78
2022-09-28T23:21:25.444Z,99409.50
2022-09-28T23:24:01.498Z,99411.50
2022-09-28T23:26:32.072Z,99411.69
2022-09-28T23:28:59.745Z,99419.09
2022-09-28T23:31:30.463Z,99416.06
2022-09-28T23:34:00.257Z,99415.00
2022-09-28T23:36:28.047Z,99427.16
2022-09-28T23:38:55.263Z,99426.59
2022-09-28T23:41:22.289Z,99430.78
2022-09-28T23:43:49.275Z,99432.78
2022-09-28T23:46:20.432Z,99425.84
2022-09-28T23:48:49.210Z,99423.81
2022-09-28T23:51:17.044Z,99413.53
2022-09-28T23:53:44.468Z,99425.16
2022-09-28T23:56:12.077Z,99418.91
2022-09-28T23:58:39.062Z,99419.94
